KEKO/EKO METAR and TAF weather

Enter ICAO airport designator
Station Type Date Time Source
KEKO METAR 2018/01/24 06:56 UTC NOAA

KEKO 240656Z AUTO 09004KT 10SM CLR M02/M04 A3021 RMK AO2 SLP252 T10171039


Station Type Date Time Source
KEKO Decoded METAR 2018/01/24 06:56 UTC NOAA

ELKO REGIONAL AIRPORT, NV, United States (KEKO) 40-50N 115-47W 1547M
Jan 24, 2018 - 01:56 AM EST / 2018.01.24 0656 UTC
Wind: from the E (090 degrees) at 5 MPH (4 KT):0
Visibility: 10 mile(s):0
Sky conditions: clear
Temperature: 28.9 F (-1.7 C)
Windchill: 23 F (-5 C):1
Dew Point: 25.0 F (-3.9 C)
Relative Humidity: 84%
Pressure (altimeter): 30.21 in. Hg (1023 hPa)
ob: KEKO 240656Z AUTO 09004KT 10SM CLR M02/M04 A3021 RMK AO2 SLP252 T10171039
cycle: 7

Station Type Date Time Source
KEKO TAF 2018/01/24 06:45 UTC NOAA

TAF KEKO 240543Z 2406/2506 08006KT P6SM SCT150
FM241200 09006KT P6SM VCFG SCT003 SCT150
FM241900 12006KT P6SM SCT150
FM242300 14010G18KT P6SM SCT110 BKN250


Example: see airport list